Time;durP1;ratioP1;P1;durP2;ratioP2;P2;SDS_P1;SDS_P2;PMS_P1;PMS_P2;Temp;Humidity;BMP_temperature;BMP_pressure;BME280_temperature;BME280_humidity;BME280_pressure;Samples;Min_cycle;Max_cycle;Signal;HPM_P1;HPM_P2
2022/11/19 00:00:46;;;;;;;5.50;2.40;;;1.00;99.90;;;;;;5049172;28;20170;-83
2022/11/19 00:03:16;;;;;;;3.93;2.27;;;0.40;99.90;;;;;;5054759;28;20115;-83
2022/11/19 00:05:47;;;;;;;3.40;1.90;;;1.20;99.90;;;;;;5054014;28;20052;-83
2022/11/19 00:08:16;;;;;;;5.47;2.70;;;1.00;99.90;;;;;;5055271;28;20048;-83
2022/11/19 00:10:42;;;;;;;4.83;2.43;;;0.90;99.90;;;;;;5037640;28;20420;-83
2022/11/19 00:13:08;;;;;;;4.43;2.30;;;3.30;99.90;;;;;;5053310;28;20080;-84
2022/11/19 00:15:35;;;;;;;6.70;3.00;;;2.40;99.90;;;;;;5037426;28;20186;-83
2022/11/19 00:18:04;;;;;;;4.50;2.23;;;2.80;99.90;;;;;;5037132;28;20037;-83
2022/11/19 00:20:31;;;;;;;5.63;2.37;;;0.90;99.90;;;;;;5037010;28;20124;-84
2022/11/19 00:22:57;;;;;;;5.10;2.23;;;1.00;99.90;;;;;;5055055;28;20432;-84
2022/11/19 00:25:25;;;;;;;4.93;2.50;;;2.70;99.90;;;;;;5044033;28;20037;-84
2022/11/19 00:27:51;;;;;;;4.53;2.40;;;0.90;99.90;;;;;;5037227;28;20120;-83
2022/11/19 00:30:18;;;;;;;5.10;2.50;;;2.10;99.90;;;;;;5020922;28;20049;-84
2022/11/19 00:32:44;;;;;;;5.20;2.67;;;;;;;;;;5037097;28;20048;-84
2022/11/19 00:35:10;;;;;;;5.87;2.40;;;1.00;99.90;;;;;;5037015;28;20041;-84
2022/11/19 00:37:36;;;;;;;3.93;2.10;;;2.30;99.90;;;;;;5020544;28;20377;-83
2022/11/19 00:40:02;;;;;;;3.60;1.77;;;-0.40;99.90;;;;;;5036967;28;20040;-82
2022/11/19 00:42:28;;;;;;;5.13;2.20;;;0.90;99.90;;;;;;5036594;28;20075;-83
2022/11/19 00:44:54;;;;;;;3.33;1.80;;;1.20;99.90;;;;;;5004929;28;20067;-83
2022/11/19 00:47:19;;;;;;;3.57;2.03;;;0.90;99.90;;;;;;5021358;28;20047;-83
2022/11/19 00:49:45;;;;;;;5.47;2.50;;;2.10;99.90;;;;;;5036367;28;20045;-82
2022/11/19 00:52:11;;;;;;;4.13;2.50;;;2.10;99.90;;;;;;5020182;28;20559;-83
2022/11/19 00:54:37;;;;;;;5.30;2.30;;;0.80;99.90;;;;;;5037128;28;20037;-83
2022/11/19 00:57:02;;;;;;;5.17;2.73;;;1.70;99.90;;;;;;5036478;28;20036;-83
2022/11/19 00:59:28;;;;;;;3.50;2.20;;;0.80;99.90;;;;;;5020231;28;20047;-83
2022/11/19 01:01:54;;;;;;;4.63;2.30;;;0.60;99.90;;;;;;5053211;28;20045;-83
2022/11/19 01:04:20;;;;;;;4.63;2.50;;;0.70;99.90;;;;;;5036016;28;20045;-83
2022/11/19 01:06:45;;;;;;;4.90;2.30;;;2.00;99.90;;;;;;5045716;28;20044;-83
2022/11/19 01:09:11;;;;;;;3.33;2.13;;;0.80;99.90;;;;;;5069565;28;20484;-83
2022/11/19 01:11:37;;;;;;;4.77;2.20;;;2.60;99.90;;;;;;5052763;28;20041;-84
2022/11/19 01:14:05;;;;;;;5.10;2.63;;;2.40;99.90;;;;;;5036474;28;20068;-85
2022/11/19 01:16:37;;;;;;;5.00;2.40;;;0.80;99.90;;;;;;5019999;28;20041;-84
2022/11/19 01:19:04;;;;;;;4.37;2.47;;;0.70;99.90;;;;;;5036035;28;20084;-84
2022/11/19 01:21:32;;;;;;;5.57;2.67;;;2.20;99.90;;;;;;5037098;28;20412;-84
2022/11/19 01:23:59;;;;;;;4.73;2.40;;;0.60;99.90;;;;;;5036777;28;20037;-84
2022/11/19 01:26:26;;;;;;;5.47;2.50;;;-0.30;99.90;;;;;;5052415;28;20045;-84
2022/11/19 01:28:52;;;;;;;4.40;2.23;;;2.60;99.90;;;;;;5036328;28;20059;-84
2022/11/19 01:31:21;;;;;;;4.53;2.07;;;0.60;99.90;;;;;;5036329;28;20037;-84
2022/11/19 01:33:47;;;;;;;5.57;2.60;;;0.50;99.90;;;;;;5036577;28;20095;-84
2022/11/19 01:36:24;;;;;;;4.07;2.40;;;-0.10;99.90;;;;;;5019410;28;20121;-84
2022/11/19 01:38:51;;;;;;;4.60;2.27;;;0.40;99.90;;;;;;5036824;28;20040;-85
2022/11/19 01:41:18;;;;;;;4.37;2.30;;;0.30;99.90;;;;;;5035685;28;20098;-84
2022/11/19 01:43:44;;;;;;;6.00;2.73;;;;;;;;;;5035876;28;20056;-84
2022/11/19 01:46:12;;;;;;;5.97;2.70;;;0.10;99.90;;;;;;5052706;28;20091;-84
2022/11/19 01:48:43;;;;;;;4.07;2.30;;;2.10;99.90;;;;;;5051957;28;20045;-83
2022/11/19 01:51:21;;;;;;;6.20;2.97;;;0.00;99.90;;;;;;5035699;28;20044;-83
2022/11/19 01:53:50;;;;;;;5.10;2.63;;;-0.10;99.90;;;;;;5035393;28;20094;-83
2022/11/19 01:56:19;;;;;;;6.03;2.23;;;-0.20;99.90;;;;;;5051712;28;20040;-84
2022/11/19 01:58:48;;;;;;;4.03;2.37;;;-0.20;99.90;;;;;;5035337;28;20046;-83
2022/11/19 02:01:17;;;;;;;4.70;2.50;;;0.90;99.90;;;;;;5019553;28;20049;-83
2022/11/19 02:03:43;;;;;;;4.60;2.20;;;-0.30;99.90;;;;;;5047107;28;20047;-83
2022/11/19 02:06:11;;;;;;;6.73;2.87;;;-0.40;99.90;;;;;;5035739;28;20040;-83
2022/11/19 02:08:51;;;;;;;5.83;2.67;;;-0.30;99.90;;;;;;5034914;28;20049;-83
2022/11/19 02:11:29;;;;;;;4.30;2.40;;;-0.30;99.90;;;;;;5035404;28;20069;-83
2022/11/19 02:14:01;;;;;;;5.00;2.63;;;-0.30;99.90;;;;;;5020197;28;20045;-83
2022/11/19 02:16:51;;;;;;;4.67;2.60;;;-0.30;99.90;;;;;;5039647;28;20069;-83
2022/11/19 02:19:25;;;;;;;5.80;2.77;;;-0.40;99.90;;;;;;5056461;28;20174;-83
2022/11/19 02:22:16;;;;;;;5.63;2.70;;;-0.50;99.90;;;;;;5057486;28;20396;-83
2022/11/19 02:24:51;;;;;;;5.23;2.60;;;-0.40;99.90;;;;;;5039806;28;20086;-83
2022/11/19 02:27:47;;;;;;;6.43;3.00;;;-0.40;99.90;;;;;;5039615;28;20044;-83
2022/11/19 02:30:17;;;;;;;4.93;2.43;;;-0.40;99.90;;;;;;5056541;28;20487;-83
2022/11/19 02:33:08;;;;;;;5.13;2.77;;;-0.40;99.90;;;;;;5039319;28;20464;-82
2022/11/19 02:35:54;;;;;;;4.23;2.60;;;-0.40;99.90;;;;;;5054455;28;20029;-83
2022/11/19 02:38:28;;;;;;;5.93;2.93;;;-0.50;99.90;;;;;;5034657;28;20039;-83
2022/11/19 02:41:34;;;;;;;4.17;2.70;;;-0.50;99.90;;;;;;5038315;28;20103;-83
2022/11/19 02:47:14;;;;;;;5.80;2.63;;;-0.60;99.90;;;;;;5056177;28;20102;-83
2022/11/19 02:49:46;;;;;;;6.10;2.67;;;-1.50;99.90;;;;;;5038584;28;20063;-83
2022/11/19 02:52:15;;;;;;;4.57;2.50;;;-0.60;99.90;;;;;;5038563;28;20037;-84
2022/11/19 02:54:41;;;;;;;5.77;3.10;;;-0.70;99.90;;;;;;5038991;28;20506;-84
2022/11/19 02:57:09;;;;;;;5.63;2.83;;;-0.70;99.90;;;;;;5052777;28;20037;-84
2022/11/19 03:05:25;;;;;;;6.33;3.07;;;-0.80;99.90;;;;;;5048613;28;20036;-84
2022/11/19 03:07:51;;;;;;;4.80;2.47;;;-0.70;99.90;;;;;;5039200;28;20051;-84
2022/11/19 03:10:20;;;;;;;6.57;3.07;;;-0.90;99.90;;;;;;5038914;28;20041;-83
2022/11/19 03:18:45;;;;;;;5.83;2.43;;;-0.60;99.90;;;;;;5065638;28;20049;-83
2022/11/19 03:21:29;;;;;;;5.73;2.63;;;-1.00;99.90;;;;;;5056126;28;20508;-83
2022/11/19 03:24:03;;;;;;;7.90;2.80;;;-1.00;99.90;;;;;;5055289;28;20362;-82
2022/11/19 03:26:35;;;;;;;5.93;2.83;;;-0.70;99.90;;;;;;5037970;28;20041;-82
2022/11/19 03:29:05;;;;;;;6.73;3.20;;;-1.10;99.90;;;;;;5038590;28;20048;-82
2022/11/19 03:31:33;;;;;;;5.30;2.63;;;0.60;99.90;;;;;;5031501;28;20068;-82
2022/11/19 03:34:04;;;;;;;5.90;3.00;;;-1.20;99.90;;;;;;5037865;28;20045;-82
2022/11/19 03:36:37;;;;;;;6.43;3.70;;;-1.30;99.90;;;;;;5055562;28;20045;-83
2022/11/19 03:39:07;;;;;;;6.40;2.83;;;-1.50;99.90;;;;;;5027608;28;20047;-82
2022/11/19 03:41:34;;;;;;;3.77;2.30;;;-1.30;99.90;;;;;;5054682;28;20044;-82
2022/11/19 03:44:07;;;;;;;5.27;2.50;;;-0.30;99.90;;;;;;5038716;28;20396;-83
2022/11/19 03:46:36;;;;;;;6.60;2.87;;;0.50;99.90;;;;;;5037886;28;20115;-83
2022/11/19 03:49:03;;;;;;;4.33;2.50;;;-0.70;99.90;;;;;;5055845;28;20044;-82
2022/11/19 03:51:39;;;;;;;5.57;2.33;;;-2.60;99.90;;;;;;5037699;28;20059;-82
2022/11/19 03:54:05;;;;;;;;;;;-1.60;99.90;;;;;;5038602;28;20178;-83
2022/11/19 03:56:35;;;;;;;5.63;2.70;;;-1.30;99.90;;;;;;5054286;28;19966;-84
2022/11/19 03:59:03;;;;;;;6.37;2.90;;;-1.60;99.90;;;;;;5047651;28;20033;-84
2022/11/19 04:01:29;;;;;;;5.57;2.77;;;-1.60;99.90;;;;;;5037695;28;20049;-83
2022/11/19 04:06:39;;;;;;;5.60;2.77;;;-1.50;99.90;;;;;;5051377;28;20033;-83
2022/11/19 04:09:04;;;;;;;4.83;2.87;;;-1.50;99.90;;;;;;5041573;28;20037;-84
2022/11/19 04:11:30;;;;;;;6.17;3.67;;;-1.60;99.90;;;;;;5032688;28;20083;-84
2022/11/19 04:13:56;;;;;;;6.10;2.83;;;0.10;99.90;;;;;;5052581;28;20049;-84
2022/11/19 04:16:21;;;;;;;4.77;2.53;;;-1.60;99.90;;;;;;5033466;28;20130;-84
2022/11/19 04:18:47;;;;;;;6.37;3.03;;;-1.60;99.90;;;;;;5037060;28;20060;-84
2022/11/19 04:21:13;;;;;;;6.30;3.00;;;-1.70;99.90;;;;;;5053707;28;20047;-84
2022/11/19 04:23:38;;;;;;;5.47;2.90;;;-0.70;99.90;;;;;;5053434;28;20041;-84
2022/11/19 04:26:04;;;;;;;5.43;2.60;;;-1.90;99.90;;;;;;5036486;28;20469;-84
2022/11/19 04:28:30;;;;;;;5.93;2.87;;;-1.30;99.90;;;;;;5020231;28;20037;-84
2022/11/19 04:30:55;;;;;;;6.63;2.83;;;-1.10;99.90;;;;;;5028280;28;20154;-83
2022/11/19 04:33:21;;;;;;;6.77;2.97;;;;;;;;;;5036687;28;20052;-83
2022/11/19 04:35:47;;;;;;;6.23;3.07;;;-1.10;99.90;;;;;;5036495;28;20037;-83
2022/11/19 04:38:13;;;;;;;4.80;2.73;;;-1.10;99.90;;;;;;5030255;28;20033;-83
2022/11/19 04:40:38;;;;;;;5.43;2.73;;;-1.30;99.90;;;;;;5019969;28;20037;-83
2022/11/19 04:43:04;;;;;;;6.40;2.83;;;-0.90;99.90;;;;;;5053029;28;20101;-83
2022/11/19 04:45:30;;;;;;;5.77;2.77;;;-1.30;99.90;;;;;;5036003;28;20041;-83
2022/11/19 04:47:56;;;;;;;5.60;2.70;;;-1.20;99.90;;;;;;5041174;28;20047;-85
2022/11/19 04:50:22;;;;;;;5.40;3.00;;;-1.20;99.90;;;;;;5059510;28;20041;-85
2022/11/19 04:52:47;;;;;;;6.33;3.33;;;-1.40;99.90;;;;;;5036685;28;20045;-84
2022/11/19 04:55:13;;;;;;;6.17;2.43;;;0.10;99.90;;;;;;5036695;28;20083;-84
2022/11/19 04:57:39;;;;;;;5.60;2.93;;;0.60;99.90;;;;;;5053363;28;20043;-85
2022/11/19 05:00:06;;;;;;;5.53;2.70;;;-0.60;99.90;;;;;;5036441;28;20033;-85
2022/11/19 05:02:32;;;;;;;7.07;2.70;;;-1.50;99.90;;;;;;5036647;28;20489;-85
2022/11/19 05:04:57;;;;;;;5.87;3.00;;;-0.10;99.90;;;;;;5020069;28;20052;-82
2022/11/19 05:07:23;;;;;;;5.33;2.50;;;-1.80;99.90;;;;;;5036461;28;20127;-83
2022/11/19 05:09:49;;;;;;;6.33;2.97;;;-1.60;99.90;;;;;;5036450;28;20119;-83
2022/11/19 05:12:14;;;;;;;6.07;2.90;;;-0.80;99.90;;;;;;5053008;28;20481;-83
2022/11/19 05:14:41;;;;;;;4.27;2.63;;;-1.20;99.90;;;;;;5052692;28;20037;-83
2022/11/19 05:17:07;;;;;;;5.13;2.57;;;0.10;99.90;;;;;;5060098;28;20041;-83
2022/11/19 05:19:33;;;;;;;6.83;3.20;;;;;;;;;;5024143;28;20390;-85
2022/11/19 05:21:58;;;;;;;6.07;3.07;;;-1.80;99.90;;;;;;5019892;28;20056;-85
2022/11/19 05:24:24;;;;;;;8.27;3.13;;;0.10;99.90;;;;;;5023988;28;20037;-85
2022/11/19 05:26:50;;;;;;;6.90;2.83;;;-1.90;99.90;;;;;;5052959;28;20044;-85
2022/11/19 05:29:15;;;;;;;4.90;2.70;;;-0.60;99.90;;;;;;5036027;28;20400;-85
2022/11/19 05:31:41;;;;;;;6.80;3.33;;;-1.30;99.90;;;;;;5048648;28;20084;-84
2022/11/19 05:34:07;;;;;;;6.27;3.30;;;-2.00;99.90;;;;;;5066006;22;20041;-83
2022/11/19 05:36:32;;;;;;;6.47;3.03;;;-2.10;99.90;;;;;;5051204;28;20032;-85
2022/11/19 05:38:58;;;;;;;7.60;3.13;;;-0.40;99.90;;;;;;5017799;28;20040;-84
2022/11/19 05:41:24;;;;;;;6.73;3.10;;;-2.10;99.90;;;;;;5034615;28;20433;-84
2022/11/19 05:43:49;;;;;;;5.67;3.20;;;-2.20;99.90;;;;;;5051080;28;20043;-84
2022/11/19 05:46:15;;;;;;;7.20;3.20;;;-2.70;99.90;;;;;;5051208;28;20098;-84
2022/11/19 05:48:41;;;;;;;6.70;3.30;;;-1.90;99.90;;;;;;5051345;28;20049;-84
2022/11/19 05:51:06;;;;;;;5.67;3.33;;;-2.20;99.90;;;;;;5017609;28;20040;-84
2022/11/19 05:53:32;;;;;;;6.83;4.20;;;;;;;;;;5033185;28;20072;-84
2022/11/19 05:55:58;;;;;;;8.10;3.10;;;-2.30;99.90;;;;;;5050919;28;20033;-84
2022/11/19 05:58:24;;;;;;;6.33;3.40;;;;;;;;;;5034538;28;20036;-84
2022/11/19 06:00:54;;;;;;;7.43;3.60;;;-2.10;99.90;;;;;;5034462;28;20095;-84
2022/11/19 06:03:20;;;;;;;7.07;3.67;;;-2.30;99.90;;;;;;5034853;28;20048;-83
2022/11/19 06:05:46;;;;;;;7.97;3.67;;;-1.50;99.90;;;;;;5050393;28;20699;-83
2022/11/19 06:08:11;;;;;;;9.63;3.77;;;-2.30;99.90;;;;;;5050700;28;20037;-84
2022/11/19 06:10:37;;;;;;;5.90;3.07;;;-2.50;99.90;;;;;;5049156;28;20052;-82
2022/11/19 06:13:03;;;;;;;8.20;3.67;;;-0.10;99.90;;;;;;5015656;28;20496;-82
2022/11/19 06:15:28;;;;;;;5.60;3.00;;;-2.30;99.90;;;;;;5049391;28;20045;-82
2022/11/19 06:17:55;;;;;;;7.80;3.43;;;-2.20;99.90;;;;;;5058733;28;20481;-82
2022/11/19 06:20:21;;;;;;;7.33;3.50;;;-2.30;99.90;;;;;;5032128;28;20095;-82
2022/11/19 06:22:47;;;;;;;6.67;3.47;;;-2.30;99.90;;;;;;5032144;28;20056;-82
2022/11/19 06:25:13;;;;;;;7.90;3.57;;;-2.30;99.90;;;;;;5031758;28;20405;-82
2022/11/19 06:27:38;;;;;;;4.90;2.90;;;-1.00;99.90;;;;;;5046711;28;20258;-84
2022/11/19 06:30:06;;;;;;;7.33;3.40;;;-2.30;99.90;;;;;;5048381;28;20488;-84
2022/11/19 06:32:32;;;;;;;7.03;3.57;;;-2.30;99.90;;;;;;5032504;28;20576;-84
2022/11/19 06:34:57;;;;;;;7.53;3.77;;;-2.30;99.90;;;;;;5049571;28;20128;-84
2022/11/19 06:37:23;;;;;;;8.40;3.43;;;;;;;;;;5050088;28;20060;-84
2022/11/19 06:39:49;;;;;;;6.30;3.87;;;-2.50;99.90;;;;;;5033869;28;20440;-84
2022/11/19 06:44:59;;;;;;;6.27;3.27;;;-2.60;99.90;;;;;;5036219;28;20152;-82
2022/11/19 06:47:25;;;;;;;7.43;3.57;;;-2.60;99.90;;;;;;5033821;28;20555;-82
2022/11/19 06:49:50;;;;;;;7.27;4.03;;;-2.60;99.90;;;;;;5051844;28;20051;-82
2022/11/19 06:52:16;;;;;;;7.30;4.00;;;-2.40;99.90;;;;;;5050429;28;20106;-82
2022/11/19 06:54:42;;;;;;;7.17;3.73;;;-4.20;99.90;;;;;;5050575;28;20123;-83
2022/11/19 06:57:07;;;;;;;5.33;3.10;;;-2.60;99.90;;;;;;5033400;28;20606;-82
2022/11/19 06:59:34;;;;;;;8.27;3.23;;;-1.10;99.90;;;;;;5033719;28;20041;-83
2022/11/19 07:01:59;;;;;;;6.90;3.33;;;-2.70;99.90;;;;;;5051300;28;20047;-84
2022/11/19 07:04:25;;;;;;;8.07;3.60;;;-1.00;99.90;;;;;;5053396;28;20049;-83
2022/11/19 07:06:51;;;;;;;7.00;3.87;;;-2.60;99.90;;;;;;5021509;28;20382;-83
2022/11/19 07:09:16;;;;;;;7.67;4.03;;;-2.60;99.90;;;;;;5053598;28;20033;-84
2022/11/19 07:11:42;;;;;;;8.77;3.70;;;-0.60;99.90;;;;;;5042147;28;20193;-83
2022/11/19 07:14:08;;;;;;;6.23;3.53;;;-3.10;99.90;;;;;;5036813;28;20110;-83
2022/11/19 07:16:35;;;;;;;8.57;4.00;;;-2.50;99.90;;;;;;5042216;28;20041;-85
2022/11/19 07:19:04;;;;;;;7.60;3.57;;;-2.60;99.90;;;;;;5053280;28;20041;-84
2022/11/19 07:21:30;;;;;;;6.30;3.57;;;-2.10;99.90;;;;;;5036870;28;20121;-85
2022/11/19 07:23:57;;;;;;;7.57;3.30;;;-2.60;99.90;;;;;;5037305;28;20045;-84
2022/11/19 07:26:24;;;;;;;7.47;3.63;;;-2.60;99.90;;;;;;5053265;28;20048;-85
2022/11/19 07:28:50;;;;;;;8.30;4.37;;;;;;;;;;5034729;28;20041;-84
2022/11/19 07:31:16;;;;;;;9.13;4.00;;;-0.40;99.90;;;;;;5036296;28;20032;-85
2022/11/19 07:33:42;;;;;;;7.37;3.87;;;-2.50;99.90;;;;;;5052533;28;20163;-84
2022/11/19 07:36:09;;;;;;;7.50;3.57;;;-0.20;99.90;;;;;;5052662;28;20071;-84
2022/11/19 07:38:36;;;;;;;8.57;3.33;;;-1.60;99.90;;;;;;5037854;28;20443;-84
2022/11/19 07:41:01;;;;;;;7.30;4.07;;;-1.30;99.90;;;;;;5038584;28;20083;-84
2022/11/19 07:43:27;;;;;;;5.90;3.23;;;1.10;99.90;;;;;;5055137;28;20045;-84
2022/11/19 07:45:53;;;;;;;7.10;3.83;;;0.10;99.90;;;;;;5055043;28;20052;-84
2022/11/19 07:48:19;;;;;;;5.83;3.07;;;-0.10;99.90;;;;;;5055390;28;20040;-84
2022/11/19 07:50:51;;;;;;;6.20;3.23;;;0.20;99.90;;;;;;5054562;28;20041;-84
2022/11/19 07:53:16;;;;;;;5.70;3.03;;;2.30;99.90;;;;;;5054073;28;20408;-84
2022/11/19 07:55:45;;;;;;;6.37;3.03;;;0.40;99.90;;;;;;5054174;28;20052;-84
2022/11/19 07:58:12;;;;;;;9.17;4.10;;;0.50;99.90;;;;;;5037964;28;20113;-84
2022/11/19 08:00:37;;;;;;;7.23;3.23;;;0.40;99.90;;;;;;5037547;28;20540;-84
2022/11/19 08:03:04;;;;;;;6.70;3.60;;;0.10;99.90;;;;;;5037400;28;20186;-84
2022/11/19 08:05:30;;;;;;;7.37;3.70;;;0.40;99.90;;;;;;5071011;28;20047;-84
2022/11/19 08:07:55;;;;;;;7.60;3.23;;;0.40;99.90;;;;;;5054024;28;20045;-82
2022/11/19 08:10:21;;;;;;;6.10;3.37;;;0.70;99.90;;;;;;5053837;28;20036;-82
2022/11/19 08:13:01;;;;;;;6.20;3.63;;;0.70;99.90;;;;;;5053662;28;20134;-82
2022/11/19 08:15:29;;;;;;;6.57;3.03;;;0.60;99.90;;;;;;5054156;28;20040;-82
2022/11/19 08:18:12;;;;;;;5.93;3.07;;;0.40;99.90;;;;;;5053850;28;20122;-82
2022/11/19 08:20:47;;;;;;;6.00;3.17;;;0.30;99.90;;;;;;5022857;28;20048;-82
2022/11/19 08:23:13;;;;;;;7.70;3.23;;;0.30;99.90;;;;;;5053862;28;20045;-84
2022/11/19 08:25:42;;;;;;;6.67;3.40;;;1.80;99.90;;;;;;5053616;28;20041;-84
2022/11/19 08:28:08;;;;;;;6.90;3.50;;;0.00;99.90;;;;;;5053589;28;20124;-84
2022/11/19 08:30:34;;;;;;;5.80;3.20;;;0.40;99.90;;;;;;5053383;28;20175;-84
2022/11/19 08:32:59;;;;;;;5.77;3.50;;;1.10;99.90;;;;;;5054526;28;20126;-84
2022/11/19 08:35:25;;;;;;;6.60;3.20;;;1.90;99.90;;;;;;5073377;28;20052;-84
2022/11/19 08:37:51;;;;;;;6.65;3.45;;;4.40;99.90;;;;;;5056726;28;20098;-84
2022/11/19 08:40:17;;;;;;;6.53;3.72;;;3.80;99.90;;;;;;5072933;28;20040;-83
2022/11/19 08:43:01;;;;;;;7.50;3.78;;;4.40;99.90;;;;;;5051225;28;20040;-83
2022/11/19 08:45:36;;;;;;;9.52;3.60;;;7.20;99.90;;;;;;5022253;28;20132;-83
2022/11/19 08:48:04;;;;;;;5.28;2.80;;;6.20;99.90;;;;;;5038752;28;20055;-83
2022/11/19 08:50:31;;;;;;;5.53;2.88;;;6.70;99.90;;;;;;5055674;28;20470;-83
2022/11/19 08:53:03;;;;;;;4.82;3.22;;;7.00;99.90;;;;;;5040825;28;20032;-83
2022/11/19 08:55:29;;;;;;;7.22;3.70;;;7.20;99.90;;;;;;5088993;28;20052;-83
2022/11/19 08:58:03;;;;;;;7.22;3.33;;;7.60;99.90;;;;;;5072757;28;20040;-83
2022/11/19 09:00:31;;;;;;;6.90;3.70;;;7.30;95.20;;;;;;5068109;28;20081;-82
2022/11/19 09:02:57;;;;;;;5.70;3.35;;;7.60;96.10;;;;;;5043609;28;20054;-83
2022/11/19 09:05:23;;;;;;;6.25;3.85;;;7.00;96.00;;;;;;5060130;28;20040;-83
2022/11/19 09:07:49;;;;;;;5.55;3.63;;;6.20;97.20;;;;;;5048685;28;20477;-84
2022/11/19 09:10:16;;;;;;;5.82;3.42;;;6.50;98.60;;;;;;5056823;28;20049;-83
2022/11/19 09:12:42;;;;;;;7.32;3.60;;;4.60;98.30;;;;;;5089664;28;20042;-82
2022/11/19 09:15:08;;;;;;;5.90;3.25;;;3.80;99.60;;;;;;5070948;28;20115;-80
2022/11/19 09:17:35;;;;;;;6.07;3.40;;;3.30;99.90;;;;;;5075692;28;20036;-81
2022/11/19 09:20:00;;;;;;;6.55;3.90;;;2.90;99.90;;;;;;5089311;28;20069;-80
2022/11/19 09:22:26;;;;;;;7.35;3.95;;;4.30;99.90;;;;;;5071425;28;20123;-81
2022/11/19 09:24:52;;;;;;;7.45;4.13;;;4.10;99.90;;;;;;5039822;28;20040;-80
2022/11/19 09:27:18;;;;;;;5.57;3.55;;;2.30;99.90;;;;;;5041655;28;20091;-80
2022/11/19 09:29:44;;;;;;;6.18;3.58;;;2.10;99.90;;;;;;5055907;28;20059;-81
2022/11/19 09:32:09;;;;;;;6.28;3.63;;;1.90;99.90;;;;;;5055324;28;20067;-81
2022/11/19 09:34:38;;;;;;;6.47;3.65;;;1.90;99.90;;;;;;5059833;28;20060;-81
2022/11/19 09:37:04;;;;;;;8.07;4.22;;;2.10;99.90;;;;;;5055810;28;20393;-82
2022/11/19 09:39:29;;;;;;;5.47;3.20;;;1.80;99.90;;;;;;5005376;28;20121;-81
2022/11/19 09:42:07;;;;;;;7.00;4.05;;;1.70;99.90;;;;;;5035569;28;20060;-82
2022/11/19 09:45:01;;;;;;;6.37;3.60;;;1.60;99.90;;;;;;5035812;28;20045;-82
2022/11/19 09:47:52;;;;;;;6.53;3.20;;;1.60;99.90;;;;;;5067297;28;20400;-83
2022/11/19 09:50:22;;;;;;;7.50;3.60;;;1.80;99.90;;;;;;5072955;28;20376;-83
2022/11/19 09:52:54;;;;;;;6.30;3.87;;;1.80;99.90;;;;;;5088975;28;20041;-83
2022/11/19 09:55:29;;;;;;;7.43;3.95;;;1.80;99.90;;;;;;5054659;28;20032;-83
2022/11/19 09:57:56;;;;;;;9.20;3.93;;;2.70;99.90;;;;;;5089320;28;20033;-82
2022/11/19 10:00:26;;;;;;;6.37;3.50;;;1.60;99.90;;;;;;5102263;28;20358;-83
2022/11/19 10:02:52;;;;;;;7.20;3.43;;;1.90;99.90;;;;;;5039220;28;20372;-83
2022/11/19 10:05:38;;;;;;;5.33;3.37;;;3.70;99.90;;;;;;5063193;28;20123;-82
2022/11/19 10:08:23;;;;;;;6.70;3.30;;;1.80;99.90;;;;;;5060889;28;20044;-83
2022/11/19 10:11:18;;;;;;;9.20;3.60;;;1.90;99.90;;;;;;5054714;28;20083;-83
2022/11/19 10:13:58;;;;;;;5.97;3.20;;;1.90;99.90;;;;;;5067094;28;20045;-82
2022/11/19 10:16:43;;;;;;;5.23;3.27;;;1.80;99.90;;;;;;5038478;28;20484;-83
2022/11/19 10:19:34;;;;;;;7.67;3.37;;;1.90;99.90;;;;;;5058915;28;20036;-82
2022/11/19 10:22:14;;;;;;;7.43;3.73;;;3.70;99.90;;;;;;5048397;28;20055;-80
2022/11/19 10:24:50;;;;;;;7.00;3.55;;;2.40;99.90;;;;;;5055205;28;20131;-80
2022/11/19 10:27:26;;;;;;;;;;;3.50;99.90;;;;;;5061157;28;20044;-83
2022/11/19 10:29:55;;;;;;;7.18;3.20;;;3.90;99.90;;;;;;5072619;28;19966;-84
2022/11/19 10:32:38;;;;;;;5.95;2.90;;;4.50;99.90;;;;;;5071605;28;20048;-84
2022/11/19 10:35:14;;;;;;;7.22;3.65;;;5.00;99.90;;;;;;5039810;28;20083;-84
2022/11/19 10:37:54;;;;;;;7.22;3.22;;;6.00;99.90;;;;;;5070105;28;20044;-84
2022/11/19 10:40:23;;;;;;;4.70;2.92;;;6.80;99.90;;;;;;5068976;28;20040;-83
2022/11/19 10:43:09;;;;;;;5.13;2.88;;;7.40;99.90;;;;;;5070823;28;20047;-84
2022/11/19 10:45:34;;;;;;;5.10;2.75;;;7.20;95.10;;;;;;5046428;28;20123;-84
2022/11/19 10:48:06;;;;;;;5.60;2.90;;;8.50;98.50;;;;;;5042301;28;20464;-84
2022/11/19 10:50:32;;;;;;;7.97;3.20;;;8.40;94.60;;;;;;5058815;28;20550;-84
2022/11/19 10:53:13;;;;;;;5.40;2.92;;;9.10;97.00;;;;;;5059691;28;20048;-87
2022/11/19 10:56:04;;;;;;;6.75;3.10;;;9.00;92.50;;;;;;5038632;28;20051;-86
2022/11/19 10:58:33;;;;;;;4.85;3.08;;;9.20;96.20;;;;;;5050416;28;20049;-86
2022/11/19 11:01:02;;;;;;;5.82;2.80;;;9.00;91.10;;;;;;5075423;28;20048;-84
2022/11/19 11:03:36;;;;;;;6.25;3.15;;;9.10;91.40;;;;;;5060073;28;20123;-84
2022/11/19 11:06:05;;;;;;;4.88;3.08;;;8.40;90.80;;;;;;5041819;28;20042;-84
2022/11/19 11:08:32;;;;;;;5.30;3.03;;;8.90;96.30;;;;;;5058580;28;20044;-84
2022/11/19 11:10:58;;;;;;;3.63;2.17;;;9.40;93.50;;;;;;5040624;28;20403;-84
2022/11/19 11:16:21;;;;;;;5.03;2.53;;;9.20;92.50;;;;;;5061643;28;20437;-83
2022/11/19 11:18:47;;;;;;;4.53;2.65;;;9.60;93.00;;;;;;5041920;28;20052;-84
2022/11/19 11:21:42;;;;;;;5.25;2.53;;;9.50;90.50;;;;;;5057647;28;20029;-84
2022/11/19 11:24:11;;;;;;;4.88;2.80;;;8.60;90.80;;;;;;5055427;28;20150;-84
2022/11/19 11:26:37;;;;;;;6.63;3.05;;;8.00;92.20;;;;;;5057082;28;20079;-81
2022/11/19 11:29:22;;;;;;;5.05;3.08;;;8.10;93.30;;;;;;5063821;28;20040;-81
2022/11/19 11:31:48;;;;;;;5.00;3.08;;;7.20;94.80;;;;;;5038277;28;20040;-81
2022/11/19 11:34:40;;;;;;;5.10;2.65;;;8.10;97.10;;;;;;5029662;28;20388;-81
2022/11/19 11:37:09;;;;;;;4.07;2.55;;;6.20;96.70;;;;;;5058160;28;20119;-81
2022/11/19 11:39:43;;;;;;;4.53;2.55;;;5.70;98.20;;;;;;5057691;28;20032;-81
2022/11/19 11:42:11;;;;;;;4.97;2.78;;;5.50;97.90;;;;;;5057880;28;20045;-80
2022/11/19 11:44:47;;;;;;;4.93;2.60;;;6.00;99.70;;;;;;5041936;28;20128;-82
2022/11/19 11:47:19;;;;;;;5.93;2.60;;;4.60;99.10;;;;;;5057277;28;20048;-81
2022/11/19 11:49:54;;;;;;;6.25;2.88;;;4.30;99.90;;;;;;5064764;28;20041;-81
2022/11/19 11:52:28;;;;;;;4.72;2.63;;;4.20;99.90;;;;;;5054145;28;20056;-81
2022/11/19 11:54:57;;;;;;;4.13;2.50;;;5.40;99.90;;;;;;5090343;28;20053;-81
2022/11/19 11:57:24;;;;;;;6.50;2.72;;;4.00;99.90;;;;;;5074277;28;20510;-81
2022/11/19 11:59:50;;;;;;;4.85;3.00;;;4.10;99.90;;;;;;5057113;28;20518;-81
2022/11/19 12:02:31;;;;;;;4.28;2.50;;;4.50;99.90;;;;;;5060783;28;20040;-81
2022/11/19 12:05:06;;;;;;;4.90;2.78;;;4.60;99.90;;;;;;5051169;28;20404;-81
2022/11/19 12:07:49;;;;;;;4.55;2.45;;;4.30;99.90;;;;;;5071069;28;20127;-82
2022/11/19 12:10:42;;;;;;;4.22;2.63;;;4.00;99.90;;;;;;5059596;28;20083;-81
2022/11/19 12:13:20;;;;;;;4.55;2.30;;;4.10;99.90;;;;;;5037133;28;20045;-81
2022/11/19 12:16:03;;;;;;;6.38;2.85;;;3.90;99.90;;;;;;5068639;28;20041;-81
2022/11/19 12:18:56;;;;;;;5.32;3.42;;;3.80;99.90;;;;;;5065501;28;20040;-79
2022/11/19 12:22:00;;;;;;;4.72;2.47;;;3.70;99.90;;;;;;5059196;28;20543;-79
2022/11/19 12:25:00;;;;;;;5.38;2.58;;;3.60;99.90;;;;;;5053609;28;20048;-79
2022/11/19 12:27:50;;;;;;;3.40;2.22;;;3.60;99.90;;;;;;5063605;28;20064;-79
2022/11/19 12:30:21;;;;;;;4.25;2.25;;;3.70;99.90;;;;;;5042181;28;20098;-80
2022/11/19 12:33:05;;;;;;;3.38;2.00;;;3.90;99.90;;;;;;5072616;28;20037;-80
2022/11/19 12:35:49;;;;;;;4.20;2.17;;;4.10;99.90;;;;;;5056832;28;20048;-81
2022/11/19 12:38:46;;;;;;;4.70;2.17;;;4.00;99.90;;;;;;5040844;28;20038;-81
2022/11/19 12:41:39;;;;;;;4.63;2.25;;;4.00;99.90;;;;;;5089603;28;20044;-81
2022/11/19 12:44:29;;;;;;;5.28;2.33;;;3.80;99.90;;;;;;5048634;28;20821;-81
2022/11/19 12:47:05;;;;;;;4.22;2.75;;;3.90;99.90;;;;;;5086357;28;20041;-81
2022/11/19 12:49:50;;;;;;;3.88;2.20;;;3.70;99.90;;;;;;5057984;28;20055;-80
2022/11/19 12:52:37;;;;;;;4.43;1.98;;;4.20;99.90;;;;;;5056046;28;20400;-79
2022/11/19 12:55:25;;;;;;;6.20;2.58;;;3.60;99.90;;;;;;5056428;28;20076;-79
2022/11/19 12:58:00;;;;;;;7.82;2.50;;;3.70;99.90;;;;;;5093979;28;20407;-79
2022/11/19 13:00:28;;;;;;;4.38;2.05;;;3.70;99.90;;;;;;5086232;28;20036;-79
2022/11/19 13:03:03;;;;;;;4.53;2.55;;;3.70;99.90;;;;;;5071611;28;20150;-80
2022/11/19 13:05:39;;;;;;;5.00;2.30;;;3.80;99.90;;;;;;5070015;28;20051;-80
2022/11/19 13:08:23;;;;;;;4.13;2.70;;;4.70;99.90;;;;;;5083835;28;20041;-80
2022/11/19 13:11:05;;;;;;;7.03;2.40;;;4.90;99.90;;;;;;5042465;28;20052;-80
2022/11/19 13:13:34;;;;;;;4.00;2.03;;;5.00;99.90;;;;;;5071648;28;20052;-80
2022/11/19 13:16:06;;;;;;;4.28;2.33;;;5.70;99.90;;;;;;5039884;28;20522;-80
2022/11/19 13:18:36;;;;;;;3.72;2.15;;;5.50;99.90;;;;;;5040035;28;20091;-80
2022/11/19 13:21:17;;;;;;;4.93;2.35;;;5.60;99.90;;;;;;5041273;28;20401;-80
2022/11/19 13:23:46;;;;;;;5.10;2.42;;;5.70;99.90;;;;;;5089535;28;20500;-81
2022/11/19 13:26:17;;;;;;;3.47;2.25;;;5.60;99.90;;;;;;5058313;28;20435;-82
2022/11/19 13:29:05;;;;;;;3.63;2.03;;;5.70;99.90;;;;;;5059603;28;20047;-82
2022/11/19 13:32:00;;;;;;;3.95;1.80;;;5.70;99.90;;;;;;5060107;28;20051;-82
2022/11/19 13:34:44;;;;;;;3.45;1.90;;;6.10;99.90;;;;;;5017517;28;20064;-82
2022/11/19 13:37:16;;;;;;;4.70;2.20;;;5.90;99.90;;;;;;5072640;28;20113;-83